sensor_id;sensor_type;location;lat;lon;timestamp;P1;durP1;ratioP1;P2;durP2;ratioP2
68509;SDS011;55512;50.102;19.958;2022-08-05T00:00:18;7.20;;;4.50;;
68509;SDS011;55512;50.102;19.958;2022-08-05T00:02:46;8.60;;;4.00;;
68509;SDS011;55512;50.102;19.958;2022-08-05T00:05:12;7.70;;;4.70;;
68509;SDS011;55512;50.102;19.958;2022-08-05T00:07:37;6.30;;;4.00;;
68509;SDS011;55512;50.102;19.958;2022-08-05T00:10:04;7.30;;;4.50;;
68509;SDS011;55512;50.102;19.958;2022-08-05T00:12:29;8.70;;;4.80;;
68509;SDS011;55512;50.102;19.958;2022-08-05T00:14:55;6.50;;;4.50;;
68509;SDS011;55512;50.102;19.958;2022-08-05T00:17:20;7.40;;;4.50;;
68509;SDS011;55512;50.102;19.958;2022-08-05T00:19:46;7.60;;;5.00;;
68509;SDS011;55512;50.102;19.958;2022-08-05T00:22:12;7.00;;;4.40;;
68509;SDS011;55512;50.102;19.958;2022-08-05T00:24:39;6.80;;;4.30;;
68509;SDS011;55512;50.102;19.958;2022-08-05T00:27:04;7.60;;;4.20;;
68509;SDS011;55512;50.102;19.958;2022-08-05T00:29:30;6.80;;;4.30;;
68509;SDS011;55512;50.102;19.958;2022-08-05T00:31:56;7.50;;;4.00;;
68509;SDS011;55512;50.102;19.958;2022-08-05T00:34:21;6.60;;;4.00;;
68509;SDS011;55512;50.102;19.958;2022-08-05T00:36:47;7.30;;;4.10;;
68509;SDS011;55512;50.102;19.958;2022-08-05T00:39:12;6.10;;;4.10;;
68509;SDS011;55512;50.102;19.958;2022-08-05T00:41:38;8.30;;;4.10;;
68509;SDS011;55512;50.102;19.958;2022-08-05T00:44:04;7.60;;;4.30;;
68509;SDS011;55512;50.102;19.958;2022-08-05T00:46:30;9.00;;;4.70;;
68509;SDS011;55512;50.102;19.958;2022-08-05T00:48:55;7.50;;;4.80;;
68509;SDS011;55512;50.102;19.958;2022-08-05T00:51:21;9.30;;;4.90;;
68509;SDS011;55512;50.102;19.958;2022-08-05T00:53:48;10.50;;;4.90;;
68509;SDS011;55512;50.102;19.958;2022-08-05T00:56:15;13.20;;;4.80;;
68509;SDS011;55512;50.102;19.958;2022-08-05T00:58:41;7.90;;;4.80;;
68509;SDS011;55512;50.102;19.958;2022-08-05T01:01:09;7.30;;;4.90;;
68509;SDS011;55512;50.102;19.958;2022-08-05T01:03:37;7.30;;;4.70;;
68509;SDS011;55512;50.102;19.958;2022-08-05T01:06:04;8.30;;;5.00;;
68509;SDS011;55512;50.102;19.958;2022-08-05T01:08:31;7.60;;;4.90;;
68509;SDS011;55512;50.102;19.958;2022-08-05T01:11:18;7.90;;;4.20;;
68509;SDS011;55512;50.102;19.958;2022-08-05T01:14:08;8.10;;;4.70;;
68509;SDS011;55512;50.102;19.958;2022-08-05T01:17:04;7.70;;;5.10;;
68509;SDS011;55512;50.102;19.958;2022-08-05T01:22:10;7.80;;;4.20;;
68509;SDS011;55512;50.102;19.958;2022-08-05T01:24:58;6.80;;;4.30;;
68509;SDS011;55512;50.102;19.958;2022-08-05T01:30:33;7.70;;;4.80;;
68509;SDS011;55512;50.102;19.958;2022-08-05T01:33:08;8.90;;;5.30;;
68509;SDS011;55512;50.102;19.958;2022-08-05T01:35:39;8.30;;;4.60;;
68509;SDS011;55512;50.102;19.958;2022-08-05T01:38:08;8.50;;;4.60;;
68509;SDS011;55512;50.102;19.958;2022-08-05T01:40:35;5.90;;;4.20;;
68509;SDS011;55512;50.102;19.958;2022-08-05T01:43:03;7.40;;;4.30;;
68509;SDS011;55512;50.102;19.958;2022-08-05T01:45:30;8.40;;;4.60;;
68509;SDS011;55512;50.102;19.958;2022-08-05T01:47:59;9.00;;;4.50;;
68509;SDS011;55512;50.102;19.958;2022-08-05T01:50:29;9.00;;;5.00;;
68509;SDS011;55512;50.102;19.958;2022-08-05T01:53:01;8.10;;;4.80;;
68509;SDS011;55512;50.102;19.958;2022-08-05T01:55:32;8.70;;;4.60;;
68509;SDS011;55512;50.102;19.958;2022-08-05T01:58:00;8.00;;;4.80;;
68509;SDS011;55512;50.102;19.958;2022-08-05T02:00:30;7.90;;;4.70;;
68509;SDS011;55512;50.102;19.958;2022-08-05T02:03:23;6.70;;;4.20;;
68509;SDS011;55512;50.102;19.958;2022-08-05T02:05:55;9.00;;;5.40;;
68509;SDS011;55512;50.102;19.958;2022-08-05T02:08:21;8.30;;;4.60;;
68509;SDS011;55512;50.102;19.958;2022-08-05T02:10:59;8.40;;;4.90;;
68509;SDS011;55512;50.102;19.958;2022-08-05T02:16:26;7.40;;;4.50;;
68509;SDS011;55512;50.102;19.958;2022-08-05T02:19:04;8.40;;;4.70;;
68509;SDS011;55512;50.102;19.958;2022-08-05T02:21:35;8.70;;;4.80;;
68509;SDS011;55512;50.102;19.958;2022-08-05T02:24:08;6.90;;;4.70;;
68509;SDS011;55512;50.102;19.958;2022-08-05T02:26:44;8.60;;;5.00;;
68509;SDS011;55512;50.102;19.958;2022-08-05T02:29:12;8.60;;;5.30;;
68509;SDS011;55512;50.102;19.958;2022-08-05T02:31:43;9.50;;;5.10;;
68509;SDS011;55512;50.102;19.958;2022-08-05T02:34:10;8.00;;;5.10;;
68509;SDS011;55512;50.102;19.958;2022-08-05T02:36:41;7.30;;;5.00;;
68509;SDS011;55512;50.102;19.958;2022-08-05T02:39:10;9.60;;;5.30;;
68509;SDS011;55512;50.102;19.958;2022-08-05T02:41:38;8.50;;;5.30;;
68509;SDS011;55512;50.102;19.958;2022-08-05T02:44:06;8.20;;;5.40;;
68509;SDS011;55512;50.102;19.958;2022-08-05T02:46:41;8.50;;;5.20;;
68509;SDS011;55512;50.102;19.958;2022-08-05T02:49:10;7.40;;;4.90;;
68509;SDS011;55512;50.102;19.958;2022-08-05T02:51:39;8.30;;;5.30;;
68509;SDS011;55512;50.102;19.958;2022-08-05T02:54:05;8.80;;;4.80;;
68509;SDS011;55512;50.102;19.958;2022-08-05T02:56:32;8.10;;;5.50;;
68509;SDS011;55512;50.102;19.958;2022-08-05T02:58:59;8.70;;;5.70;;
68509;SDS011;55512;50.102;19.958;2022-08-05T03:01:26;8.50;;;5.20;;
68509;SDS011;55512;50.102;19.958;2022-08-05T03:03:55;8.20;;;5.10;;
68509;SDS011;55512;50.102;19.958;2022-08-05T03:06:26;7.40;;;5.40;;
68509;SDS011;55512;50.102;19.958;2022-08-05T03:08:52;9.00;;;5.10;;
68509;SDS011;55512;50.102;19.958;2022-08-05T03:11:24;10.10;;;5.70;;
68509;SDS011;55512;50.102;19.958;2022-08-05T03:13:51;10.30;;;6.10;;
68509;SDS011;55512;50.102;19.958;2022-08-05T03:16:18;7.60;;;5.40;;
68509;SDS011;55512;50.102;19.958;2022-08-05T03:18:45;8.30;;;5.70;;
68509;SDS011;55512;50.102;19.958;2022-08-05T03:21:10;9.30;;;5.30;;
68509;SDS011;55512;50.102;19.958;2022-08-05T03:23:38;8.90;;;4.90;;
68509;SDS011;55512;50.102;19.958;2022-08-05T03:26:06;8.40;;;5.60;;
68509;SDS011;55512;50.102;19.958;2022-08-05T03:28:33;9.10;;;5.60;;
68509;SDS011;55512;50.102;19.958;2022-08-05T03:31:00;9.70;;;5.80;;
68509;SDS011;55512;50.102;19.958;2022-08-05T03:33:27;9.30;;;5.80;;
68509;SDS011;55512;50.102;19.958;2022-08-05T03:35:55;9.40;;;5.50;;
68509;SDS011;55512;50.102;19.958;2022-08-05T03:38:22;9.20;;;5.40;;
68509;SDS011;55512;50.102;19.958;2022-08-05T03:40:51;9.70;;;5.60;;
68509;SDS011;55512;50.102;19.958;2022-08-05T03:43:18;9.00;;;5.50;;
68509;SDS011;55512;50.102;19.958;2022-08-05T03:45:44;9.30;;;5.90;;
68509;SDS011;55512;50.102;19.958;2022-08-05T03:48:11;9.70;;;6.50;;
68509;SDS011;55512;50.102;19.958;2022-08-05T03:54:06;9.30;;;6.00;;
68509;SDS011;55512;50.102;19.958;2022-08-05T03:56:44;9.60;;;5.60;;
68509;SDS011;55512;50.102;19.958;2022-08-05T03:59:22;8.50;;;5.60;;
68509;SDS011;55512;50.102;19.958;2022-08-05T04:01:52;9.50;;;5.80;;
68509;SDS011;55512;50.102;19.958;2022-08-05T04:04:20;10.60;;;6.50;;
68509;SDS011;55512;50.102;19.958;2022-08-05T04:06:47;8.90;;;5.50;;
68509;SDS011;55512;50.102;19.958;2022-08-05T04:09:14;11.40;;;5.80;;
68509;SDS011;55512;50.102;19.958;2022-08-05T04:11:41;8.70;;;5.60;;
68509;SDS011;55512;50.102;19.958;2022-08-05T04:14:07;10.80;;;6.30;;
68509;SDS011;55512;50.102;19.958;2022-08-05T04:16:33;10.80;;;6.30;;
68509;SDS011;55512;50.102;19.958;2022-08-05T04:19:00;11.10;;;6.50;;
68509;SDS011;55512;50.102;19.958;2022-08-05T04:21:27;11.00;;;5.10;;
68509;SDS011;55512;50.102;19.958;2022-08-05T04:23:53;10.40;;;5.70;;
68509;SDS011;55512;50.102;19.958;2022-08-05T04:26:19;7.60;;;4.90;;
68509;SDS011;55512;50.102;19.958;2022-08-05T04:28:44;9.50;;;5.80;;
68509;SDS011;55512;50.102;19.958;2022-08-05T04:31:10;7.90;;;5.60;;
68509;SDS011;55512;50.102;19.958;2022-08-05T04:33:36;9.90;;;5.40;;
68509;SDS011;55512;50.102;19.958;2022-08-05T04:36:01;12.50;;;5.80;;
68509;SDS011;55512;50.102;19.958;2022-08-05T04:38:27;11.00;;;5.80;;
68509;SDS011;55512;50.102;19.958;2022-08-05T04:40:52;8.70;;;5.30;;
68509;SDS011;55512;50.102;19.958;2022-08-05T04:43:18;8.90;;;5.40;;
68509;SDS011;55512;50.102;19.958;2022-08-05T04:45:43;9.50;;;5.70;;
68509;SDS011;55512;50.102;19.958;2022-08-05T04:48:11;9.80;;;5.90;;
68509;SDS011;55512;50.102;19.958;2022-08-05T04:50:48;11.00;;;5.60;;
68509;SDS011;55512;50.102;19.958;2022-08-05T04:53:15;11.60;;;6.10;;
68509;SDS011;55512;50.102;19.958;2022-08-05T04:55:43;9.80;;;5.50;;
68509;SDS011;55512;50.102;19.958;2022-08-05T04:58:14;12.70;;;6.40;;
68509;SDS011;55512;50.102;19.958;2022-08-05T05:00:41;17.20;;;6.50;;
68509;SDS011;55512;50.102;19.958;2022-08-05T05:03:08;16.20;;;6.60;;
68509;SDS011;55512;50.102;19.958;2022-08-05T05:05:35;12.50;;;6.60;;
68509;SDS011;55512;50.102;19.958;2022-08-05T05:08:08;13.80;;;6.20;;
68509;SDS011;55512;50.102;19.958;2022-08-05T05:10:40;11.50;;;6.30;;
68509;SDS011;55512;50.102;19.958;2022-08-05T05:13:12;11.70;;;6.40;;
68509;SDS011;55512;50.102;19.958;2022-08-05T05:15:40;9.70;;;6.50;;
68509;SDS011;55512;50.102;19.958;2022-08-05T05:18:07;9.40;;;5.90;;
68509;SDS011;55512;50.102;19.958;2022-08-05T05:20:34;8.20;;;5.80;;
68509;SDS011;55512;50.102;19.958;2022-08-05T05:23:01;8.80;;;5.50;;
68509;SDS011;55512;50.102;19.958;2022-08-05T05:25:30;11.30;;;6.40;;
68509;SDS011;55512;50.102;19.958;2022-08-05T05:27:56;10.30;;;5.90;;
68509;SDS011;55512;50.102;19.958;2022-08-05T05:30:22;14.00;;;6.50;;
68509;SDS011;55512;50.102;19.958;2022-08-05T05:32:48;14.60;;;6.30;;
68509;SDS011;55512;50.102;19.958;2022-08-05T05:35:13;12.70;;;5.90;;
68509;SDS011;55512;50.102;19.958;2022-08-05T05:37:55;8.90;;;6.00;;
68509;SDS011;55512;50.102;19.958;2022-08-05T05:40:25;9.20;;;5.70;;
68509;SDS011;55512;50.102;19.958;2022-08-05T05:42:52;13.10;;;6.10;;
68509;SDS011;55512;50.102;19.958;2022-08-05T05:45:19;11.20;;;6.70;;
68509;SDS011;55512;50.102;19.958;2022-08-05T05:47:46;10.00;;;6.40;;
68509;SDS011;55512;50.102;19.958;2022-08-05T05:50:14;12.00;;;5.80;;
68509;SDS011;55512;50.102;19.958;2022-08-05T05:52:42;12.30;;;6.50;;
68509;SDS011;55512;50.102;19.958;2022-08-05T05:55:10;10.90;;;6.10;;
68509;SDS011;55512;50.102;19.958;2022-08-05T05:57:39;11.90;;;6.00;;
68509;SDS011;55512;50.102;19.958;2022-08-05T06:00:10;11.60;;;5.90;;
68509;SDS011;55512;50.102;19.958;2022-08-05T06:02:38;8.40;;;5.60;;
68509;SDS011;55512;50.102;19.958;2022-08-05T06:05:09;8.70;;;5.90;;
68509;SDS011;55512;50.102;19.958;2022-08-05T06:07:35;9.40;;;5.60;;
68509;SDS011;55512;50.102;19.958;2022-08-05T06:10:03;10.40;;;6.30;;
68509;SDS011;55512;50.102;19.958;2022-08-05T06:12:30;9.90;;;5.70;;
68509;SDS011;55512;50.102;19.958;2022-08-05T06:14:56;11.30;;;5.90;;
68509;SDS011;55512;50.102;19.958;2022-08-05T06:17:21;10.90;;;6.00;;
68509;SDS011;55512;50.102;19.958;2022-08-05T06:19:47;11.40;;;5.70;;
68509;SDS011;55512;50.102;19.958;2022-08-05T06:22:21;10.70;;;5.60;;
68509;SDS011;55512;50.102;19.958;2022-08-05T06:24:48;11.70;;;5.60;;
68509;SDS011;55512;50.102;19.958;2022-08-05T06:27:15;11.10;;;6.20;;
68509;SDS011;55512;50.102;19.958;2022-08-05T06:29:40;21.90;;;7.70;;
68509;SDS011;55512;50.102;19.958;2022-08-05T06:32:07;13.00;;;6.40;;
68509;SDS011;55512;50.102;19.958;2022-08-05T06:34:33;12.80;;;6.20;;
68509;SDS011;55512;50.102;19.958;2022-08-05T06:36:59;14.80;;;6.20;;
68509;SDS011;55512;50.102;19.958;2022-08-05T06:39:25;13.10;;;6.90;;
68509;SDS011;55512;50.102;19.958;2022-08-05T06:41:51;12.40;;;6.70;;
68509;SDS011;55512;50.102;19.958;2022-08-05T06:44:17;11.90;;;6.50;;
68509;SDS011;55512;50.102;19.958;2022-08-05T06:46:42;23.30;;;11.70;;
68509;SDS011;55512;50.102;19.958;2022-08-05T06:49:08;17.70;;;8.40;;
68509;SDS011;55512;50.102;19.958;2022-08-05T06:51:33;15.70;;;6.70;;
68509;SDS011;55512;50.102;19.958;2022-08-05T06:54:00;15.20;;;6.00;;
68509;SDS011;55512;50.102;19.958;2022-08-05T06:56:28;11.60;;;5.90;;
68509;SDS011;55512;50.102;19.958;2022-08-05T06:58:55;11.00;;;6.70;;
68509;SDS011;55512;50.102;19.958;2022-08-05T07:01:20;11.60;;;6.80;;
68509;SDS011;55512;50.102;19.958;2022-08-05T07:03:46;15.40;;;6.60;;
68509;SDS011;55512;50.102;19.958;2022-08-05T07:06:12;12.10;;;6.30;;
68509;SDS011;55512;50.102;19.958;2022-08-05T07:08:37;10.00;;;6.80;;
68509;SDS011;55512;50.102;19.958;2022-08-05T07:11:03;10.60;;;6.50;;
68509;SDS011;55512;50.102;19.958;2022-08-05T07:13:33;9.60;;;6.10;;
68509;SDS011;55512;50.102;19.958;2022-08-05T07:16:17;10.20;;;6.20;;
68509;SDS011;55512;50.102;19.958;2022-08-05T07:19:03;9.90;;;5.90;;
68509;SDS011;55512;50.102;19.958;2022-08-05T07:21:28;10.70;;;6.70;;
68509;SDS011;55512;50.102;19.958;2022-08-05T07:23:55;9.50;;;7.00;;
68509;SDS011;55512;50.102;19.958;2022-08-05T07:26:21;9.20;;;6.00;;
68509;SDS011;55512;50.102;19.958;2022-08-05T07:28:47;9.00;;;5.30;;
68509;SDS011;55512;50.102;19.958;2022-08-05T07:31:15;11.20;;;6.80;;
68509;SDS011;55512;50.102;19.958;2022-08-05T07:33:41;13.20;;;7.10;;
68509;SDS011;55512;50.102;19.958;2022-08-05T07:36:07;10.70;;;7.00;;
68509;SDS011;55512;50.102;19.958;2022-08-05T07:38:34;12.70;;;7.20;;
68509;SDS011;55512;50.102;19.958;2022-08-05T07:41:06;11.60;;;7.30;;
68509;SDS011;55512;50.102;19.958;2022-08-05T07:43:33;11.60;;;7.00;;
68509;SDS011;55512;50.102;19.958;2022-08-05T07:45:59;11.60;;;6.80;;
68509;SDS011;55512;50.102;19.958;2022-08-05T07:48:25;12.90;;;7.40;;
68509;SDS011;55512;50.102;19.958;2022-08-05T07:50:50;13.30;;;6.80;;
68509;SDS011;55512;50.102;19.958;2022-08-05T07:53:16;21.10;;;7.10;;
68509;SDS011;55512;50.102;19.958;2022-08-05T07:55:41;8.50;;;6.20;;
68509;SDS011;55512;50.102;19.958;2022-08-05T07:58:07;11.80;;;6.40;;
68509;SDS011;55512;50.102;19.958;2022-08-05T08:00:33;15.70;;;7.50;;
68509;SDS011;55512;50.102;19.958;2022-08-05T08:02:58;11.00;;;6.60;;
68509;SDS011;55512;50.102;19.958;2022-08-05T08:05:24;10.10;;;6.10;;
68509;SDS011;55512;50.102;19.958;2022-08-05T08:07:51;9.30;;;5.70;;
68509;SDS011;55512;50.102;19.958;2022-08-05T08:10:19;8.70;;;5.70;;
68509;SDS011;55512;50.102;19.958;2022-08-05T08:12:48;11.60;;;6.40;;
68509;SDS011;55512;50.102;19.958;2022-08-05T08:15:14;11.40;;;6.00;;
68509;SDS011;55512;50.102;19.958;2022-08-05T08:17:40;11.90;;;6.00;;
68509;SDS011;55512;50.102;19.958;2022-08-05T08:20:06;9.80;;;6.30;;
68509;SDS011;55512;50.102;19.958;2022-08-05T08:22:32;10.10;;;6.70;;
68509;SDS011;55512;50.102;19.958;2022-08-05T08:24:58;11.10;;;6.60;;
68509;SDS011;55512;50.102;19.958;2022-08-05T08:27:24;10.30;;;6.80;;
68509;SDS011;55512;50.102;19.958;2022-08-05T08:29:50;13.30;;;7.90;;
68509;SDS011;55512;50.102;19.958;2022-08-05T08:32:15;12.10;;;7.00;;
68509;SDS011;55512;50.102;19.958;2022-08-05T08:34:41;10.60;;;7.20;;
68509;SDS011;55512;50.102;19.958;2022-08-05T08:37:08;13.70;;;8.40;;
68509;SDS011;55512;50.102;19.958;2022-08-05T08:39:33;12.20;;;7.20;;
68509;SDS011;55512;50.102;19.958;2022-08-05T08:42:00;11.90;;;6.60;;
68509;SDS011;55512;50.102;19.958;2022-08-05T08:44:29;11.90;;;7.20;;
68509;SDS011;55512;50.102;19.958;2022-08-05T08:46:57;11.20;;;7.00;;
68509;SDS011;55512;50.102;19.958;2022-08-05T08:49:24;14.90;;;8.30;;
68509;SDS011;55512;50.102;19.958;2022-08-05T08:51:58;17.00;;;9.00;;
68509;SDS011;55512;50.102;19.958;2022-08-05T08:54:30;12.30;;;8.10;;
68509;SDS011;55512;50.102;19.958;2022-08-05T08:56:57;11.40;;;7.40;;
68509;SDS011;55512;50.102;19.958;2022-08-05T08:59:23;12.00;;;7.80;;
68509;SDS011;55512;50.102;19.958;2022-08-05T09:01:50;13.00;;;8.20;;
68509;SDS011;55512;50.102;19.958;2022-08-05T09:04:16;13.10;;;7.40;;
68509;SDS011;55512;50.102;19.958;2022-08-05T09:06:42;14.80;;;7.60;;
68509;SDS011;55512;50.102;19.958;2022-08-05T09:09:08;11.00;;;7.10;;
68509;SDS011;55512;50.102;19.958;2022-08-05T09:11:34;10.70;;;6.90;;
68509;SDS011;55512;50.102;19.958;2022-08-05T09:14:01;9.50;;;6.40;;
68509;SDS011;55512;50.102;19.958;2022-08-05T09:16:27;9.00;;;6.50;;
68509;SDS011;55512;50.102;19.958;2022-08-05T09:18:53;9.40;;;6.60;;
68509;SDS011;55512;50.102;19.958;2022-08-05T09:21:18;10.90;;;6.40;;
68509;SDS011;55512;50.102;19.958;2022-08-05T09:24:01;8.50;;;6.20;;
68509;SDS011;55512;50.102;19.958;2022-08-05T09:26:29;9.30;;;6.10;;
68509;SDS011;55512;50.102;19.958;2022-08-05T09:28:59;9.00;;;5.70;;
68509;SDS011;55512;50.102;19.958;2022-08-05T09:31:28;10.10;;;6.00;;
68509;SDS011;55512;50.102;19.958;2022-08-05T09:34:06;23.40;;;8.70;;
68509;SDS011;55512;50.102;19.958;2022-08-05T09:36:45;11.40;;;6.50;;
68509;SDS011;55512;50.102;19.958;2022-08-05T09:39:18;9.10;;;6.00;;
68509;SDS011;55512;50.102;19.958;2022-08-05T09:41:59;9.00;;;6.80;;
68509;SDS011;55512;50.102;19.958;2022-08-05T09:44:42;8.40;;;5.90;;
68509;SDS011;55512;50.102;19.958;2022-08-05T09:47:19;7.70;;;5.90;;
68509;SDS011;55512;50.102;19.958;2022-08-05T09:49:48;8.70;;;5.40;;
68509;SDS011;55512;50.102;19.958;2022-08-05T09:54:59;10.00;;;6.10;;
68509;SDS011;55512;50.102;19.958;2022-08-05T09:57:36;9.00;;;5.90;;
68509;SDS011;55512;50.102;19.958;2022-08-05T10:00:18;9.00;;;6.40;;
68509;SDS011;55512;50.102;19.958;2022-08-05T10:02:47;9.30;;;5.90;;
68509;SDS011;55512;50.102;19.958;2022-08-05T10:05:20;8.40;;;6.10;;
68509;SDS011;55512;50.102;19.958;2022-08-05T10:08:00;9.30;;;5.80;;
68509;SDS011;55512;50.102;19.958;2022-08-05T10:13:08;9.30;;;6.20;;
68509;SDS011;55512;50.102;19.958;2022-08-05T10:15:36;7.20;;;6.20;;
68509;SDS011;55512;50.102;19.958;2022-08-05T10:20:52;9.50;;;6.20;;
68509;SDS011;55512;50.102;19.958;2022-08-05T10:23:29;12.70;;;7.60;;
68509;SDS011;55512;50.102;19.958;2022-08-05T10:26:00;11.60;;;6.10;;
68509;SDS011;55512;50.102;19.958;2022-08-05T10:28:29;9.60;;;6.10;;
68509;SDS011;55512;50.102;19.958;2022-08-05T10:30:57;8.20;;;6.50;;
68509;SDS011;55512;50.102;19.958;2022-08-05T10:33:27;18.20;;;7.40;;
68509;SDS011;55512;50.102;19.958;2022-08-05T10:35:54;9.80;;;6.40;;
68509;SDS011;55512;50.102;19.958;2022-08-05T10:38:22;9.30;;;6.80;;
68509;SDS011;55512;50.102;19.958;2022-08-05T10:40:57;8.30;;;6.00;;
68509;SDS011;55512;50.102;19.958;2022-08-05T10:46:21;15.10;;;7.60;;
68509;SDS011;55512;50.102;19.958;2022-08-05T10:48:48;8.10;;;6.00;;
68509;SDS011;55512;50.102;19.958;2022-08-05T10:51:20;7.80;;;5.80;;
68509;SDS011;55512;50.102;19.958;2022-08-05T10:56:17;7.70;;;5.90;;
68509;SDS011;55512;50.102;19.958;2022-08-05T10:59:05;9.00;;;6.50;;
68509;SDS011;55512;50.102;19.958;2022-08-05T11:01:42;7.70;;;5.90;;
68509;SDS011;55512;50.102;19.958;2022-08-05T11:07:07;6.50;;;5.50;;
68509;SDS011;55512;50.102;19.958;2022-08-05T11:09:50;10.20;;;6.30;;
68509;SDS011;55512;50.102;19.958;2022-08-05T11:17:53;8.20;;;6.00;;
68509;SDS011;55512;50.102;19.958;2022-08-05T11:23:28;7.80;;;6.20;;
68509;SDS011;55512;50.102;19.958;2022-08-05T11:26:07;8.90;;;6.00;;
68509;SDS011;55512;50.102;19.958;2022-08-05T11:28:51;8.80;;;6.00;;
68509;SDS011;55512;50.102;19.958;2022-08-05T11:31:22;18.90;;;8.30;;
68509;SDS011;55512;50.102;19.958;2022-08-05T11:33:55;8.40;;;6.10;;
68509;SDS011;55512;50.102;19.958;2022-08-05T11:36:42;7.40;;;5.80;;
68509;SDS011;55512;50.102;19.958;2022-08-05T11:39:15;12.60;;;6.70;;
68509;SDS011;55512;50.102;19.958;2022-08-05T11:42:01;7.70;;;5.60;;
68509;SDS011;55512;50.102;19.958;2022-08-05T11:44:35;8.20;;;5.70;;
68509;SDS011;55512;50.102;19.958;2022-08-05T11:47:02;8.20;;;6.40;;
68509;SDS011;55512;50.102;19.958;2022-08-05T11:49:28;8.60;;;6.10;;
68509;SDS011;55512;50.102;19.958;2022-08-05T11:51:54;8.90;;;5.90;;
68509;SDS011;55512;50.102;19.958;2022-08-05T11:54:22;8.80;;;6.20;;
68509;SDS011;55512;50.102;19.958;2022-08-05T11:56:53;10.90;;;6.20;;
68509;SDS011;55512;50.102;19.958;2022-08-05T11:59:22;9.30;;;6.30;;
68509;SDS011;55512;50.102;19.958;2022-08-05T12:04:41;8.20;;;6.10;;
68509;SDS011;55512;50.102;19.958;2022-08-05T12:07:09;9.10;;;6.70;;
68509;SDS011;55512;50.102;19.958;2022-08-05T12:09:42;8.30;;;5.80;;
68509;SDS011;55512;50.102;19.958;2022-08-05T12:12:20;8.60;;;5.60;;
68509;SDS011;55512;50.102;19.958;2022-08-05T12:14:51;8.50;;;6.50;;
68509;SDS011;55512;50.102;19.958;2022-08-05T12:17:17;8.20;;;6.60;;
68509;SDS011;55512;50.102;19.958;2022-08-05T12:19:53;8.90;;;6.70;;
68509;SDS011;55512;50.102;19.958;2022-08-05T12:22:25;9.10;;;6.20;;
68509;SDS011;55512;50.102;19.958;2022-08-05T12:24:51;8.70;;;7.10;;
68509;SDS011;55512;50.102;19.958;2022-08-05T12:27:28;9.10;;;6.70;;
68509;SDS011;55512;50.102;19.958;2022-08-05T12:30:07;11.10;;;6.80;;
68509;SDS011;55512;50.102;19.958;2022-08-05T12:32:43;8.20;;;6.30;;
68509;SDS011;55512;50.102;19.958;2022-08-05T12:35:15;8.70;;;6.70;;
68509;SDS011;55512;50.102;19.958;2022-08-05T12:37:42;10.30;;;6.40;;
68509;SDS011;55512;50.102;19.958;2022-08-05T12:40:10;9.10;;;6.90;;
68509;SDS011;55512;50.102;19.958;2022-08-05T12:42:38;9.80;;;6.80;;
68509;SDS011;55512;50.102;19.958;2022-08-05T12:45:06;11.70;;;7.40;;
68509;SDS011;55512;50.102;19.958;2022-08-05T12:47:34;12.90;;;8.00;;
68509;SDS011;55512;50.102;19.958;2022-08-05T12:50:11;7.80;;;6.30;;
68509;SDS011;55512;50.102;19.958;2022-08-05T12:52:40;11.70;;;6.80;;
68509;SDS011;55512;50.102;19.958;2022-08-05T12:55:26;16.20;;;8.00;;
68509;SDS011;55512;50.102;19.958;2022-08-05T12:57:55;17.70;;;7.60;;
68509;SDS011;55512;50.102;19.958;2022-08-05T13:00:25;18.10;;;8.00;;
68509;SDS011;55512;50.102;19.958;2022-08-05T13:02:52;16.60;;;6.70;;
68509;SDS011;55512;50.102;19.958;2022-08-05T13:05:18;11.50;;;6.70;;
68509;SDS011;55512;50.102;19.958;2022-08-05T13:07:45;15.60;;;7.00;;
68509;SDS011;55512;50.102;19.958;2022-08-05T13:10:12;13.00;;;6.60;;
68509;SDS011;55512;50.102;19.958;2022-08-05T13:12:40;18.70;;;7.30;;
68509;SDS011;55512;50.102;19.958;2022-08-05T13:15:11;9.00;;;6.60;;
68509;SDS011;55512;50.102;19.958;2022-08-05T13:17:38;9.60;;;6.80;;
68509;SDS011;55512;50.102;19.958;2022-08-05T13:20:08;13.30;;;7.70;;
68509;SDS011;55512;50.102;19.958;2022-08-05T13:22:42;11.70;;;6.60;;
68509;SDS011;55512;50.102;19.958;2022-08-05T13:25:13;9.70;;;6.20;;
68509;SDS011;55512;50.102;19.958;2022-08-05T13:27:45;10.70;;;5.80;;
68509;SDS011;55512;50.102;19.958;2022-08-05T13:30:14;6.10;;;4.20;;
68509;SDS011;55512;50.102;19.958;2022-08-05T13:32:41;21.30;;;6.60;;
68509;SDS011;55512;50.102;19.958;2022-08-05T13:35:08;7.70;;;4.40;;
68509;SDS011;55512;50.102;19.958;2022-08-05T13:37:34;6.80;;;4.30;;
68509;SDS011;55512;50.102;19.958;2022-08-05T13:40:00;7.00;;;4.30;;
68509;SDS011;55512;50.102;19.958;2022-08-05T13:42:26;7.90;;;4.40;;
68509;SDS011;55512;50.102;19.958;2022-08-05T13:44:53;6.30;;;4.10;;
68509;SDS011;55512;50.102;19.958;2022-08-05T13:47:21;7.50;;;4.60;;
68509;SDS011;55512;50.102;19.958;2022-08-05T13:49:48;11.20;;;5.20;;
68509;SDS011;55512;50.102;19.958;2022-08-05T13:52:17;8.50;;;4.70;;
68509;SDS011;55512;50.102;19.958;2022-08-05T13:54:44;6.50;;;4.70;;
68509;SDS011;55512;50.102;19.958;2022-08-05T13:57:10;6.30;;;4.30;;
68509;SDS011;55512;50.102;19.958;2022-08-05T13:59:38;7.30;;;4.30;;
68509;SDS011;55512;50.102;19.958;2022-08-05T14:02:06;6.80;;;4.50;;
68509;SDS011;55512;50.102;19.958;2022-08-05T14:04:39;5.70;;;3.90;;
68509;SDS011;55512;50.102;19.958;2022-08-05T14:07:28;6.10;;;4.10;;
68509;SDS011;55512;50.102;19.958;2022-08-05T14:09:55;5.80;;;4.40;;
68509;SDS011;55512;50.102;19.958;2022-08-05T14:12:22;5.60;;;4.00;;
68509;SDS011;55512;50.102;19.958;2022-08-05T14:14:48;6.40;;;4.70;;
68509;SDS011;55512;50.102;19.958;2022-08-05T14:17:13;5.80;;;4.40;;
68509;SDS011;55512;50.102;19.958;2022-08-05T14:19:43;7.10;;;5.10;;
68509;SDS011;55512;50.102;19.958;2022-08-05T14:22:10;5.70;;;5.10;;
68509;SDS011;55512;50.102;19.958;2022-08-05T14:24:36;6.00;;;5.20;;
68509;SDS011;55512;50.102;19.958;2022-08-05T14:27:04;5.40;;;4.70;;
68509;SDS011;55512;50.102;19.958;2022-08-05T14:29:31;7.30;;;5.10;;
68509;SDS011;55512;50.102;19.958;2022-08-05T14:31:57;5.80;;;5.10;;
68509;SDS011;55512;50.102;19.958;2022-08-05T14:34:22;6.30;;;5.10;;
68509;SDS011;55512;50.102;19.958;2022-08-05T14:36:48;6.20;;;5.60;;
68509;SDS011;55512;50.102;19.958;2022-08-05T14:39:13;6.60;;;5.40;;
68509;SDS011;55512;50.102;19.958;2022-08-05T14:41:39;6.70;;;4.70;;
68509;SDS011;55512;50.102;19.958;2022-08-05T14:44:04;8.40;;;6.00;;
68509;SDS011;55512;50.102;19.958;2022-08-05T14:46:30;7.10;;;5.80;;
68509;SDS011;55512;50.102;19.958;2022-08-05T14:48:57;6.00;;;4.90;;
68509;SDS011;55512;50.102;19.958;2022-08-05T14:51:24;6.30;;;4.80;;
68509;SDS011;55512;50.102;19.958;2022-08-05T14:53:50;6.30;;;4.90;;
68509;SDS011;55512;50.102;19.958;2022-08-05T14:56:16;6.70;;;4.70;;
68509;SDS011;55512;50.102;19.958;2022-08-05T14:58:42;6.10;;;5.50;;
68509;SDS011;55512;50.102;19.958;2022-08-05T15:01:07;5.80;;;5.30;;
68509;SDS011;55512;50.102;19.958;2022-08-05T15:03:33;6.70;;;5.30;;
68509;SDS011;55512;50.102;19.958;2022-08-05T15:05:58;6.90;;;4.70;;
68509;SDS011;55512;50.102;19.958;2022-08-05T15:08:24;6.70;;;5.80;;
68509;SDS011;55512;50.102;19.958;2022-08-05T15:10:50;6.20;;;5.00;;
68509;SDS011;55512;50.102;19.958;2022-08-05T15:13:16;6.30;;;5.70;;
68509;SDS011;55512;50.102;19.958;2022-08-05T15:15:42;5.80;;;5.20;;
68509;SDS011;55512;50.102;19.958;2022-08-05T15:18:08;6.00;;;5.40;;
68509;SDS011;55512;50.102;19.958;2022-08-05T15:20:34;6.80;;;5.80;;